Time;durP1;ratioP1;P1;durP2;ratioP2;P2;SDS_P1;SDS_P2;PMS_P1;PMS_P2;Temp;Humidity;BMP_temperature;BMP_pressure;BME280_temperature;BME280_humidity;BME280_pressure;Samples;Min_cycle;Max_cycle;Signal;HPM_P1;HPM_P2
2021/04/24 00:00:15;;;;;;;7.97;4.35;;;24.40;50.60;;;;;;5009618;28;20084;-83
2021/04/24 00:02:44;;;;;;;8.35;5.00;;;24.90;49.20;;;;;;5012083;28;20485;-81
2021/04/24 00:05:23;;;;;;;8.43;4.97;;;24.70;48.50;;;;;;5015337;28;20040;-83
2021/04/24 00:07:56;;;;;;;7.30;5.07;;;25.10;49.20;;;;;;5014637;28;20040;-82
2021/04/24 00:10:24;;;;;;;7.65;5.63;;;25.30;47.70;;;;;;5014067;28;20129;-84
2021/04/24 00:12:51;;;;;;;11.07;6.07;;;25.80;47.40;;;;;;5016862;28;20061;-83
2021/04/24 00:15:20;;;;;;;10.02;6.00;;;25.60;46.70;;;;;;5019946;28;20547;-85
2021/04/24 00:17:48;;;;;;;8.82;5.10;;;25.40;45.50;;;;;;5008544;28;20064;-83
2021/04/24 00:20:19;;;;;;;8.43;5.55;;;24.20;48.80;;;;;;5011066;28;20042;-83
2021/04/24 00:22:48;;;;;;;7.07;5.43;;;23.60;50.20;;;;;;5017906;28;20026;-83
2021/04/24 00:25:17;;;;;;;10.45;5.75;;;23.50;50.20;;;;;;5017640;28;20033;-82
2021/04/24 00:27:45;;;;;;;10.35;5.50;;;23.50;50.80;;;;;;5010779;28;20104;-81
2021/04/24 00:30:14;;;;;;;7.70;5.65;;;23.40;50.60;;;;;;5009615;28;21342;-83
2021/04/24 00:32:42;;;;;;;8.95;4.22;;;23.30;51.00;;;;;;5006505;28;20102;-80
2021/04/24 00:35:12;;;;;;;6.05;4.72;;;23.00;51.50;;;;;;5008253;28;22371;-82
2021/04/24 00:37:39;;;;;;;8.55;4.53;;;23.30;51.80;;;;;;5006225;28;20030;-80
2021/04/24 00:40:09;;;;;;;7.75;4.43;;;23.20;50.50;;;;;;5002149;28;20037;-80
2021/04/24 00:42:39;;;;;;;10.57;4.75;;;23.20;54.10;;;;;;5004572;28;20533;-83
2021/04/24 00:45:10;;;;;;;5.03;4.43;;;23.70;51.20;;;;;;5005339;28;20377;-79
2021/04/24 00:47:38;;;;;;;6.32;3.88;;;24.10;49.30;;;;;;5006040;28;20033;-81
2021/04/24 00:50:10;;;;;;;10.50;3.95;;;24.80;49.40;;;;;;5009163;28;20048;-81
2021/04/24 00:52:37;;;;;;;7.45;5.30;;;25.80;48.80;;;;;;5003882;28;20028;-78
2021/04/24 00:55:05;;;;;;;5.28;3.28;;;26.40;44.70;;;;;;5005093;28;20164;-81
2021/04/24 00:57:34;;;;;;;4.63;3.20;;;26.40;44.20;;;;;;5006848;28;20103;-80
2021/04/24 01:00:03;;;;;;;8.15;3.70;;;26.30;43.50;;;;;;5005943;28;20037;-83
2021/04/24 01:02:31;;;;;;;7.22;3.60;;;26.50;42.80;;;;;;5013846;28;20086;-79
2021/04/24 01:04:59;;;;;;;9.48;3.38;;;26.40;42.00;;;;;;5013398;28;20116;-83
2021/04/24 01:07:26;;;;;;;10.80;3.33;;;26.40;39.20;;;;;;5009065;28;20022;-79
2021/04/24 01:09:54;;;;;;;7.05;3.60;;;26.40;41.20;;;;;;5007114;28;20034;-78
2021/04/24 01:12:22;;;;;;;5.13;2.95;;;26.50;42.70;;;;;;5008362;28;20030;-80
2021/04/24 01:14:49;;;;;;;3.70;2.53;;;26.60;41.60;;;;;;5002530;28;20046;-81
2021/04/24 01:17:16;;;;;;;5.07;3.38;;;26.10;41.30;;;;;;5005065;28;20085;-79
2021/04/24 01:19:45;;;;;;;7.22;2.92;;;26.00;41.90;;;;;;5006792;28;20582;-80
2021/04/24 01:22:12;;;;;;;5.55;2.72;;;25.30;42.00;;;;;;5008549;28;20404;-80
2021/04/24 01:24:40;;;;;;;6.70;2.63;;;24.60;44.30;;;;;;5008281;28;20049;-80
2021/04/24 01:27:08;;;;;;;4.53;2.88;;;23.80;45.00;;;;;;5005843;28;20384;-77
2021/04/24 01:29:37;;;;;;;8.70;3.03;;;23.80;45.50;;;;;;5005251;28;20038;-79
2021/04/24 01:32:06;;;;;;;6.68;2.90;;;24.20;45.30;;;;;;5013576;28;20712;-81
2021/04/24 01:34:34;;;;;;;7.95;2.65;;;24.10;44.20;;;;;;5011754;28;20100;-81
2021/04/24 01:37:03;;;;;;;4.07;1.92;;;24.00;46.30;;;;;;5015711;28;20476;-81
2021/04/24 01:39:31;;;;;;;5.65;2.67;;;24.20;47.40;;;;;;5010488;28;20520;-81
2021/04/24 01:41:59;;;;;;;4.70;2.50;;;24.00;44.80;;;;;;5016120;28;20113;-82
2021/04/24 01:44:27;;;;;;;7.20;2.53;;;24.70;46.20;;;;;;5015941;28;20109;-84
2021/04/24 01:46:54;;;;;;;5.07;2.90;;;25.20;44.40;;;;;;5020910;28;20030;-83
2021/04/24 01:49:22;;;;;;;6.18;2.30;;;25.40;44.50;;;;;;5021002;28;20083;-82
2021/04/24 01:51:49;;;;;;;4.60;2.47;;;26.10;42.30;;;;;;5016172;28;20132;-82
2021/04/24 01:54:17;;;;;;;5.47;2.20;;;26.30;41.70;;;;;;5011283;28;20030;-81
2021/04/24 01:56:52;;;;;;;5.50;2.20;;;26.00;43.40;;;;;;5015670;28;20048;-79
2021/04/24 01:59:22;;;;;;;4.60;2.53;;;26.10;41.70;;;;;;5009368;28;20069;-79
2021/04/24 02:01:53;;;;;;;4.00;2.22;;;26.70;43.50;;;;;;5014608;28;20050;-77
2021/04/24 02:04:22;;;;;;;4.78;2.13;;;27.30;41.20;;;;;;5011691;28;20029;-79
2021/04/24 02:06:50;;;;;;;4.90;2.13;;;27.00;40.30;;;;;;5012005;28;20026;-79
2021/04/24 02:09:19;;;;;;;8.02;2.55;;;26.30;41.90;;;;;;5007951;28;20054;-76
2021/04/24 02:12:00;;;;;;;4.07;2.28;;;26.00;42.10;;;;;;5004795;28;20029;-77
2021/04/24 02:14:28;;;;;;;5.35;2.65;;;26.10;44.50;;;;;;5011810;28;20022;-77
2021/04/24 02:16:55;;;;;;;4.03;2.05;;;26.00;41.10;;;;;;5006950;28;20153;-77
2021/04/24 02:19:23;;;;;;;3.58;2.13;;;26.40;43.10;;;;;;5010995;28;20205;-79
2021/04/24 02:21:50;;;;;;;5.10;2.30;;;26.60;40.20;;;;;;5010331;28;20374;-79
2021/04/24 02:24:18;;;;;;;6.93;2.20;;;26.80;40.40;;;;;;5008723;28;20044;-78
2021/04/24 02:26:45;;;;;;;5.53;2.17;;;26.60;40.90;;;;;;5006975;28;20030;-76
2021/04/24 02:29:12;;;;;;;5.22;2.10;;;26.90;40.40;;;;;;5007384;28;20427;-76
2021/04/24 02:31:40;;;;;;;4.75;2.15;;;26.80;41.00;;;;;;5009005;28;20029;-77
2021/04/24 02:34:07;;;;;;;5.25;2.35;;;26.60;42.10;;;;;;5008452;28;20044;-78
2021/04/24 02:36:35;;;;;;;5.68;2.42;;;26.50;43.40;;;;;;5010120;28;20026;-77
2021/04/24 02:39:02;;;;;;;3.17;1.83;;;26.00;40.80;;;;;;5007997;28;20034;-77
2021/04/24 02:41:30;;;;;;;5.47;1.92;;;26.30;41.80;;;;;;5008122;28;20105;-77
2021/04/24 02:43:57;;;;;;;5.40;2.55;;;26.60;42.00;;;;;;5016725;28;20033;-80
2021/04/24 02:46:24;;;;;;;4.05;1.90;;;27.00;42.60;;;;;;5016550;28;20029;-83
2021/04/24 02:48:53;;;;;;;7.32;2.53;;;27.30;40.40;;;;;;5016993;28;20488;-81
2021/04/24 02:51:20;;;;;;;3.75;1.65;;;28.10;43.20;;;;;;5019496;28;20026;-82
2021/04/24 02:53:48;;;;;;;6.00;1.98;;;28.50;40.00;;;;;;5015956;28;20033;-80
2021/04/24 02:56:15;;;;;;;3.95;2.20;;;29.00;41.00;;;;;;5018228;28;20033;-81
2021/04/24 02:58:43;;;;;;;4.13;1.70;;;29.00;39.20;;;;;;5016824;28;20029;-83
2021/04/24 03:01:12;;;;;;;3.95;1.90;;;28.80;37.00;;;;;;5020119;28;20050;-82
2021/04/24 03:03:40;;;;;;;7.30;1.83;;;28.30;38.00;;;;;;5018620;28;20028;-81
2021/04/24 03:06:09;;;;;;;4.68;2.47;;;28.00;39.20;;;;;;5023149;28;20732;-81
2021/04/24 03:08:36;;;;;;;4.18;1.98;;;28.00;39.20;;;;;;5018269;28;20042;-85
2021/04/24 03:11:04;;;;;;;5.07;1.73;;;27.80;40.90;;;;;;5011034;28;20048;-84
2021/04/24 03:13:32;;;;;;;5.10;2.15;;;28.40;43.60;;;;;;5018287;28;20036;-84
2021/04/24 03:15:59;;;;;;;3.28;1.88;;;28.80;43.20;;;;;;5018456;28;20041;-84
2021/04/24 03:18:27;;;;;;;3.70;2.33;;;28.60;39.50;;;;;;5013491;28;20535;-84
2021/04/24 03:21:00;;;;;;;3.85;2.00;;;28.70;40.40;;;;;;5022420;28;20030;-83
2021/04/24 03:23:28;;;;;;;4.72;2.88;;;28.70;40.00;;;;;;5018979;28;20471;-84
2021/04/24 03:25:55;;;;;;;4.30;2.33;;;28.80;38.60;;;;;;5019588;28;20097;-79
2021/04/24 03:28:23;;;;;;;3.05;1.88;;;28.60;38.60;;;;;;5019320;28;20088;-81
2021/04/24 03:30:51;;;;;;;3.28;1.77;;;28.40;38.70;;;;;;5013883;28;20034;-82
2021/04/24 03:33:19;;;;;;;5.00;2.58;;;28.20;40.40;;;;;;5007340;28;20029;-86
2021/04/24 03:35:46;;;;;;;6.22;2.10;;;27.90;38.30;;;;;;5024460;28;20033;-81
2021/04/24 03:38:14;;;;;;;4.28;1.50;;;27.00;42.70;;;;;;5008240;28;20040;-83
2021/04/24 03:40:41;;;;;;;8.52;2.00;;;26.80;42.20;;;;;;5005502;28;20029;-82
2021/04/24 03:43:08;;;;;;;3.88;1.70;;;26.80;42.60;;;;;;5006843;28;20026;-84
2021/04/24 03:45:36;;;;;;;11.05;2.35;;;26.70;43.20;;;;;;5007585;28;20030;-81
2021/04/24 03:48:04;;;;;;;3.72;1.90;;;26.40;42.30;;;;;;5007743;28;20033;-82
2021/04/24 03:50:32;;;;;;;4.03;1.60;;;26.10;42.80;;;;;;5008882;28;20048;-86
2021/04/24 03:52:59;;;;;;;3.97;2.00;;;26.20;44.80;;;;;;5008145;28;20022;-81
2021/04/24 03:55:27;;;;;;;5.57;2.20;;;26.10;42.80;;;;;;5008525;28;20473;-82
2021/04/24 03:57:56;;;;;;;4.93;1.83;;;26.10;44.10;;;;;;5016244;28;20038;-83
2021/04/24 04:00:29;;;;;;;6.45;1.70;;;26.40;43.40;;;;;;5009961;28;20041;-82
2021/04/24 04:03:01;;;;;;;5.30;2.03;;;25.90;42.10;;;;;;5009505;28;20022;-85
2021/04/24 04:05:35;;;;;;;2.83;1.58;;;26.00;43.20;;;;;;5024495;28;20033;-81
2021/04/24 04:08:04;;;;;;;5.95;2.20;;;26.20;44.10;;;;;;5011454;28;20481;-83
2021/04/24 04:10:35;;;;;;;4.10;1.83;;;26.40;42.90;;;;;;5031736;28;20045;-81
2021/04/24 04:13:04;;;;;;;6.35;1.70;;;26.30;42.10;;;;;;5013950;28;20109;-82
2021/04/24 04:15:33;;;;;;;4.43;1.88;;;25.80;42.80;;;;;;5019897;28;20396;-81
2021/04/24 04:18:09;;;;;;;4.68;1.90;;;25.70;42.70;;;;;;5016847;28;20036;-81
2021/04/24 04:20:43;;;;;;;7.80;1.92;;;25.40;43.50;;;;;;5008291;28;20084;-87
2021/04/24 04:23:11;;;;;;;2.75;1.60;;;25.50;43.80;;;;;;5008073;28;20026;-83
2021/04/24 04:25:43;;;;;;;5.18;2.00;;;25.60;44.80;;;;;;5010385;28;20399;-84
2021/04/24 04:28:10;;;;;;;10.95;2.10;;;25.80;44.70;;;;;;5010588;28;20551;-83
2021/04/24 04:30:39;;;;;;;3.53;1.63;;;25.90;45.10;;;;;;5011719;28;20041;-83
2021/04/24 04:33:09;;;;;;;4.57;1.35;;;25.80;44.70;;;;;;5012774;28;20440;-85
2021/04/24 04:35:38;;;;;;;2.97;1.88;;;25.80;43.10;;;;;;5011060;28;20026;-85
2021/04/24 04:38:06;;;;;;;5.50;1.70;;;25.40;43.10;;;;;;5012785;28;20026;-83
2021/04/24 04:40:35;;;;;;;2.90;1.67;;;25.40;44.50;;;;;;5010125;28;20028;-82
2021/04/24 04:43:03;;;;;;;2.83;1.52;;;25.40;44.00;;;;;;5010866;28;20076;-84
2021/04/24 04:45:31;;;;;;;4.00;1.50;;;25.20;45.00;;;;;;5012958;28;20065;-85
2021/04/24 04:47:58;;;;;;;3.28;1.65;;;25.20;44.60;;;;;;5012567;28;20101;-86
2021/04/24 04:50:32;;;;;;;5.22;2.22;;;25.20;45.20;;;;;;5014647;28;20062;-84
2021/04/24 04:52:59;;;;;;;3.53;1.70;;;25.20;45.90;;;;;;5010022;28;20088;-86
2021/04/24 04:55:27;;;;;;;4.55;1.67;;;25.20;45.50;;;;;;5014001;28;20025;-83
2021/04/24 04:57:56;;;;;;;3.55;1.65;;;25.20;45.90;;;;;;5011150;28;20053;-81
2021/04/24 05:00:25;;;;;;;3.05;1.45;;;25.10;45.50;;;;;;5018862;28;20524;-85
2021/04/24 05:02:54;;;;;;;5.05;1.90;;;25.20;47.40;;;;;;5018098;28;20068;-83
2021/04/24 05:05:22;;;;;;;5.55;1.98;;;24.90;45.70;;;;;;5023737;28;20376;-81
2021/04/24 05:07:50;;;;;;;6.18;1.95;;;24.70;46.40;;;;;;5019657;28;20021;-80
2021/04/24 05:10:20;;;;;;;5.55;1.70;;;24.60;45.80;;;;;;5016194;28;20030;-83
2021/04/24 05:12:47;;;;;;;3.90;2.50;;;24.70;46.80;;;;;;5019112;28;20084;-85
2021/04/24 05:15:15;;;;;;;7.88;2.45;;;24.60;45.90;;;;;;5016687;28;20070;-86
2021/04/24 05:17:43;;;;;;;2.97;1.60;;;24.40;45.90;;;;;;5014326;28;20041;-85
2021/04/24 05:20:12;;;;;;;5.38;2.05;;;24.30;46.10;;;;;;5005375;28;20050;-85
2021/04/24 05:22:39;;;;;;;3.08;1.50;;;24.20;46.70;;;;;;5013404;28;20026;-83
2021/04/24 05:25:07;;;;;;;4.93;1.60;;;24.10;46.80;;;;;;5015813;28;20030;-85
2021/04/24 05:27:36;;;;;;;3.22;1.40;;;24.10;47.50;;;;;;5012336;28;20030;-84
2021/04/24 05:30:05;;;;;;;3.85;1.88;;;24.30;47.50;;;;;;5013258;28;20049;-83
2021/04/24 05:32:32;;;;;;;4.13;1.70;;;24.30;45.70;;;;;;5014159;28;20024;-81
2021/04/24 05:35:00;;;;;;;3.03;1.70;;;24.30;46.40;;;;;;5014958;28;20053;-86
2021/04/24 05:37:27;;;;;;;4.18;2.35;;;24.20;46.00;;;;;;5010235;28;20033;-83
2021/04/24 05:39:56;;;;;;;4.57;1.70;;;24.30;46.80;;;;;;5012836;28;20025;-84
2021/04/24 05:42:24;;;;;;;2.63;1.33;;;24.30;46.30;;;;;;5013509;28;20026;-82
2021/04/24 05:44:51;;;;;;;2.88;1.95;;;24.30;46.10;;;;;;5008691;28;20481;-85
2021/04/24 05:47:18;;;;;;;3.88;1.75;;;24.40;46.20;;;;;;5012407;28;20034;-85
2021/04/24 05:49:46;;;;;;;5.10;1.52;;;24.50;46.40;;;;;;5015462;28;20041;-82
2021/04/24 05:52:13;;;;;;;3.08;1.60;;;24.50;47.00;;;;;;5014118;28;20473;-82
2021/04/24 05:54:43;;;;;;;6.45;1.30;;;24.50;46.70;;;;;;5011110;28;20109;-85
2021/04/24 05:57:11;;;;;;;2.50;1.77;;;24.40;46.20;;;;;;5011419;28;20018;-85
2021/04/24 05:59:39;;;;;;;2.50;1.52;;;24.50;46.30;;;;;;5011513;28;20058;-85
2021/04/24 06:02:07;;;;;;;4.82;1.58;;;24.50;47.10;;;;;;5011243;28;20025;-87
2021/04/24 06:04:34;;;;;;;2.70;1.80;;;24.60;46.80;;;;;;5010672;28;20029;-84
2021/04/24 06:07:02;;;;;;;2.60;1.52;;;24.60;46.10;;;;;;5010357;28;20369;-86
2021/04/24 06:09:29;;;;;;;5.03;1.45;;;24.40;45.40;;;;;;5009654;28;20037;-86
2021/04/24 06:11:57;;;;;;;2.95;1.83;;;24.30;46.70;;;;;;5009816;28;20108;-86
2021/04/24 06:14:25;;;;;;;4.75;2.60;;;24.40;48.70;;;;;;5010738;28;20028;-84
2021/04/24 06:16:53;;;;;;;2.78;1.60;;;24.30;47.90;;;;;;5012467;28;20718;-83
2021/04/24 06:19:20;;;;;;;4.07;1.60;;;24.20;47.70;;;;;;5013497;28;20120;-81
2021/04/24 06:21:48;;;;;;;3.60;1.60;;;24.10;46.40;;;;;;5011833;28;20033;-83
2021/04/24 06:24:15;;;;;;;3.85;2.08;;;24.00;47.30;;;;;;5009006;28;20053;-83
2021/04/24 06:26:42;;;;;;;15.05;8.63;;;23.80;48.10;;;;;;5001841;28;20408;-83
2021/04/24 06:29:10;;;;;;;5.07;1.60;;;23.60;47.40;;;;;;5007193;28;20038;-82
2021/04/24 06:31:37;;;;;;;2.92;1.75;;;23.30;47.90;;;;;;5009955;28;20025;-83
2021/04/24 06:34:05;;;;;;;2.55;1.42;;;23.20;49.30;;;;;;5007141;28;20747;-83
2021/04/24 06:36:33;;;;;;;2.90;1.60;;;23.10;50.30;;;;;;5010341;28;20025;-83
2021/04/24 06:39:05;;;;;;;2.10;1.30;;;22.90;50.30;;;;;;5010265;28;20092;-88
2021/04/24 06:41:34;;;;;;;3.75;1.38;;;22.80;51.00;;;;;;5013939;28;20049;-86
2021/04/24 06:44:02;;;;;;;3.60;1.52;;;22.60;51.20;;;;;;5011873;28;20038;-87
2021/04/24 06:46:30;;;;;;;3.70;1.85;;;22.40;52.00;;;;;;5012848;28;20029;-83
2021/04/24 06:48:57;;;;;;;2.83;1.15;;;22.30;51.40;;;;;;5009125;28;20026;-86
2021/04/24 06:51:25;;;;;;;3.75;1.42;;;22.20;51.90;;;;;;5010179;28;20084;-86
2021/04/24 06:53:53;;;;;;;2.50;1.23;;;22.20;49.70;;;;;;5009812;28;20519;-87
2021/04/24 06:56:23;;;;;;;6.00;1.45;;;22.10;49.70;;;;;;5010492;28;20044;-87
2021/04/24 06:58:53;;;;;;;3.17;1.27;;;22.10;49.30;;;;;;5012562;28;20026;-85
2021/04/24 07:01:20;;;;;;;4.18;1.30;;;22.00;50.10;;;;;;5011534;28;20056;-87
2021/04/24 07:03:49;;;;;;;3.97;2.08;;;21.90;51.60;;;;;;5011866;28;20049;-87
2021/04/24 07:06:18;;;;;;;7.15;2.47;;;21.70;52.00;;;;;;5019018;28;20061;-85
2021/04/24 07:08:45;;;;;;;1.65;1.00;;;21.50;52.20;;;;;;5022179;28;20102;-86
2021/04/24 07:11:12;;;;;;;2.65;1.45;;;21.30;53.10;;;;;;5031942;28;20033;-84
2021/04/24 07:13:40;;;;;;;5.75;1.50;;;21.20;55.40;;;;;;5017194;28;20085;-85
2021/04/24 07:16:11;;;;;;;4.15;1.75;;;21.00;53.20;;;;;;5015128;28;20050;-87
2021/04/24 07:18:40;;;;;;;2.90;1.67;;;20.90;53.70;;;;;;5015195;28;20030;-87
2021/04/24 07:21:08;;;;;;;5.30;1.80;;;20.80;54.40;;;;;;5013570;28;20029;-86
2021/04/24 07:23:37;;;;;;;2.28;1.30;;;20.70;56.60;;;;;;5013771;28;20053;-86
2021/04/24 07:26:05;;;;;;;4.90;2.22;;;20.70;56.30;;;;;;5017752;28;20022;-86
2021/04/24 07:28:33;;;;;;;2.83;2.00;;;20.60;56.00;;;;;;5015017;28;20022;-87
2021/04/24 07:31:01;;;;;;;4.80;1.60;;;20.50;57.40;;;;;;5012742;28;20037;-86
2021/04/24 07:33:29;;;;;;;5.60;1.85;;;20.40;57.80;;;;;;5017065;28;20049;-87
2021/04/24 07:35:59;;;;;;;4.43;1.40;;;20.30;59.50;;;;;;5014500;28;20072;-86
2021/04/24 07:38:27;;;;;;;3.40;1.65;;;20.20;59.20;;;;;;5008960;28;20041;-85
2021/04/24 07:40:54;;;;;;;3.13;1.95;;;20.00;60.10;;;;;;5012642;28;20053;-84
2021/04/24 07:43:21;;;;;;;3.03;1.77;;;20.00;61.50;;;;;;5009307;28;20018;-85
2021/04/24 07:45:51;;;;;;;3.03;1.80;;;19.80;62.50;;;;;;5011800;28;20476;-86
2021/04/24 07:48:19;;;;;;;2.60;1.63;;;19.80;63.60;;;;;;5013272;28;20038;-84
2021/04/24 07:50:48;;;;;;;4.63;2.30;;;19.60;62.30;;;;;;5011010;28;20121;-82
2021/04/24 07:53:20;;;;;;;4.00;2.20;;;19.50;63.00;;;;;;5013013;28;20468;-87
2021/04/24 07:55:48;;;;;;;3.90;1.50;;;19.50;63.70;;;;;;5012017;28;20441;-84
2021/04/24 07:58:18;;;;;;;4.50;2.47;;;19.40;64.50;;;;;;5011164;28;20022;-85
2021/04/24 08:00:45;;;;;;;3.13;1.73;;;19.30;64.80;;;;;;5011491;28;20523;-84
2021/04/24 08:03:13;;;;;;;3.53;2.33;;;19.20;66.00;;;;;;5010706;28;20108;-85
2021/04/24 08:05:40;;;;;;;6.15;3.75;;;19.10;65.70;;;;;;5010155;28;20038;-86
2021/04/24 08:08:08;;;;;;;5.30;3.70;;;19.10;66.20;;;;;;5012253;28;20163;-85
2021/04/24 08:10:36;;;;;;;5.90;4.43;;;19.10;66.80;;;;;;5013826;28;20165;-84
2021/04/24 08:13:04;;;;;;;6.47;4.50;;;19.00;67.40;;;;;;5014752;28;20037;-86
2021/04/24 08:15:32;;;;;;;5.43;4.35;;;18.90;67.60;;;;;;5016269;28;20045;-86
2021/04/24 08:18:00;;;;;;;9.77;6.95;;;18.80;68.30;;;;;;5014132;28;20034;-87
2021/04/24 08:20:28;;;;;;;9.82;7.63;;;18.80;67.90;;;;;;5015978;28;20030;-85
2021/04/24 08:22:56;;;;;;;7.47;5.70;;;18.70;67.80;;;;;;5013418;28;20029;-84
2021/04/24 08:25:23;;;;;;;6.82;3.40;;;18.50;69.10;;;;;;5015864;28;20026;-85
2021/04/24 08:27:51;;;;;;;7.03;4.22;;;18.40;70.40;;;;;;5011623;28;20064;-86
2021/04/24 08:30:22;;;;;;;5.53;3.72;;;18.30;71.10;;;;;;5013936;28;20053;-87
2021/04/24 08:32:50;;;;;;;4.55;3.15;;;18.30;72.30;;;;;;5023185;28;20531;-86
2021/04/24 08:35:18;;;;;;;6.53;3.22;;;18.20;72.90;;;;;;5017867;28;20197;-82
2021/04/24 08:37:46;;;;;;;5.18;3.42;;;18.10;73.00;;;;;;5018237;28;20029;-87
2021/04/24 08:40:15;;;;;;;4.53;3.08;;;18.10;74.00;;;;;;5010450;28;20546;-85
2021/04/24 08:42:45;;;;;;;9.98;3.53;;;18.00;74.30;;;;;;5015960;28;20049;-84
2021/04/24 08:45:17;;;;;;;7.85;3.63;;;17.90;74.40;;;;;;5009427;28;20022;-84
2021/04/24 08:47:48;;;;;;;8.57;5.05;;;17.80;74.90;;;;;;5011190;28;20420;-84
2021/04/24 08:50:21;;;;;;;13.32;8.45;;;17.80;75.10;;;;;;5008799;28;20045;-84
2021/04/24 08:52:50;;;;;;;13.20;9.30;;;17.70;74.40;;;;;;5009810;28;20062;-86
2021/04/24 08:55:24;;;;;;;11.38;8.07;;;17.60;74.00;;;;;;5007479;28;20064;-85
2021/04/24 08:57:52;;;;;;;10.20;6.95;;;17.50;74.70;;;;;;5010281;28;20387;-83
2021/04/24 09:00:25;;;;;;;10.10;6.03;;;17.50;74.50;;;;;;5012882;28;20170;-83
2021/04/24 09:02:53;;;;;;;5.68;3.65;;;17.50;74.00;;;;;;5009817;28;20041;-83
2021/04/24 09:05:23;;;;;;;5.93;3.60;;;17.40;72.80;;;;;;5009056;28;20034;-82
2021/04/24 09:08:07;;;;;;;5.53;3.63;;;17.30;72.90;;;;;;5011104;28;20025;-82
2021/04/24 09:10:44;;;;;;;6.70;2.88;;;17.30;72.30;;;;;;5006863;28;20046;-83
2021/04/24 09:13:20;;;;;;;7.25;3.10;;;17.30;72.20;;;;;;5008565;28;20022;-84
2021/04/24 09:15:48;;;;;;;7.97;3.42;;;17.30;72.60;;;;;;5013274;28;20034;-81
2021/04/24 09:18:17;;;;;;;4.63;2.75;;;17.30;72.30;;;;;;5009750;28;20026;-83
2021/04/24 09:20:58;;;;;;;6.28;3.95;;;17.20;72.50;;;;;;5009444;28;20018;-82
2021/04/24 09:23:37;;;;;;;6.40;3.80;;;17.20;73.50;;;;;;5012603;28;20026;-89
2021/04/24 09:26:15;;;;;;;10.02;5.10;;;17.10;74.00;;;;;;5022443;28;20022;-86
2021/04/24 09:28:57;;;;;;;11.45;4.55;;;17.10;74.80;;;;;;5022896;28;20030;-88
2021/04/24 09:31:27;;;;;;;8.27;4.22;;;17.00;75.20;;;;;;5016145;28;20053;-84
2021/04/24 09:33:57;;;;;;;9.30;5.43;;;16.90;75.50;;;;;;5020948;28;20026;-88
2021/04/24 09:36:37;;;;;;;9.98;5.30;;;16.90;75.70;;;;;;5026917;28;20037;-83
2021/04/24 09:39:08;;;;;;;6.47;5.05;;;16.80;75.70;;;;;;5022442;28;20010;-87
2021/04/24 09:41:43;;;;;;;8.45;4.57;;;16.80;75.70;;;;;;5019952;28;20117;-86
2021/04/24 09:44:14;;;;;;;9.07;5.55;;;16.70;76.00;;;;;;5033419;28;20076;-88
2021/04/24 09:46:47;;;;;;;11.82;5.18;;;16.60;76.30;;;;;;5020808;28;20136;-87
2021/04/24 09:49:22;;;;;;;10.82;5.35;;;16.50;76.80;;;;;;5018806;28;20044;-85
2021/04/24 09:52:04;;;;;;;7.63;4.70;;;16.30;77.60;;;;;;5017504;28;20034;-89
2021/04/24 09:54:47;;;;;;;11.23;5.20;;;16.20;78.30;;;;;;5018369;28;20124;-83
2021/04/24 09:57:21;;;;;;;10.25;5.50;;;16.10;78.50;;;;;;5020905;28;20034;-83
2021/04/24 10:00:00;;;;;;;6.13;4.32;;;16.10;78.60;;;;;;5022980;28;20094;-84
2021/04/24 10:02:39;;;;;;;13.52;6.88;;;16.10;79.40;;;;;;5030081;28;20026;-83
2021/04/24 10:05:18;;;;;;;16.50;11.18;;;16.00;79.70;;;;;;5028905;28;20034;-84
2021/04/24 10:07:51;;;;;;;15.65;10.23;;;16.10;79.50;;;;;;5021259;28;20025;-85
2021/04/24 10:10:32;;;;;;;12.27;7.70;;;16.00;79.80;;;;;;5015620;28;20098;-83
2021/04/24 10:13:06;;;;;;;10.38;6.45;;;15.90;80.00;;;;;;5016751;28;20366;-88
2021/04/24 10:15:45;;;;;;;14.38;6.30;;;15.90;80.40;;;;;;5036690;28;20044;-89
2021/04/24 10:18:14;;;;;;;12.23;6.25;;;15.90;81.10;;;;;;5016397;28;20108;-85
2021/04/24 10:20:45;;;;;;;10.48;5.88;;;15.90;81.20;;;;;;5021304;28;20037;-83
2021/04/24 10:23:16;;;;;;;11.88;5.60;;;15.80;80.90;;;;;;5019103;28;20118;-86
2021/04/24 10:25:44;;;;;;;18.13;6.43;;;15.80;81.40;;;;;;5021238;28;20030;-87
2021/04/24 10:28:13;;;;;;;12.15;5.82;;;15.70;81.60;;;;;;5025962;28;20552;-87
2021/04/24 10:30:40;;;;;;;9.48;5.50;;;15.70;81.80;;;;;;5020126;28;20049;-83
2021/04/24 10:33:08;;;;;;;16.92;8.68;;;15.70;81.90;;;;;;5019548;28;20101;-84
2021/04/24 10:35:36;;;;;;;14.43;6.72;;;15.60;82.20;;;;;;5018120;28;20044;-82
2021/04/24 10:38:06;;;;;;;12.82;6.20;;;15.60;82.30;;;;;;5019074;28;20022;-84
2021/04/24 10:40:46;;;;;;;9.85;5.97;;;15.60;82.50;;;;;;5020089;28;20037;-81
2021/04/24 10:43:20;;;;;;;11.02;6.43;;;15.60;82.90;;;;;;5021851;28;20106;-83
2021/04/24 10:45:50;;;;;;;12.10;5.97;;;15.50;83.00;;;;;;5017976;28;20082;-82
2021/04/24 10:48:24;;;;;;;10.57;6.88;;;15.50;83.50;;;;;;5019689;28;20628;-83
2021/04/24 10:50:52;;;;;;;13.55;5.90;;;15.40;83.70;;;;;;5018745;28;20175;-87
2021/04/24 10:53:31;;;;;;;9.13;6.35;;;15.40;83.90;;;;;;5022453;28;20034;-87
2021/04/24 10:56:01;;;;;;;10.20;6.50;;;15.30;84.30;;;;;;5013316;28;20034;-85
2021/04/24 10:58:32;;;;;;;8.10;6.25;;;15.30;84.60;;;;;;5018579;28;20396;-83
2021/04/24 11:01:06;;;;;;;13.93;6.97;;;15.30;84.40;;;;;;5015841;28;20061;-83
2021/04/24 11:03:40;;;;;;;11.50;6.70;;;15.30;84.70;;;;;;5017277;28;20049;-83
2021/04/24 11:06:18;;;;;;;12.30;6.47;;;15.20;84.90;;;;;;5016203;28;20021;-87
2021/04/24 11:08:48;;;;;;;10.93;6.20;;;15.10;85.10;;;;;;5016354;28;20536;-82
2021/04/24 11:11:18;;;;;;;10.65;6.85;;;15.10;85.50;;;;;;5017880;28;20042;-86
2021/04/24 11:13:56;;;;;;;9.68;6.97;;;15.00;85.60;;;;;;5017994;28;20099;-84
2021/04/24 11:16:31;;;;;;;9.73;6.32;;;14.90;85.80;;;;;;5020511;28;20054;-85
2021/04/24 11:18:59;;;;;;;11.07;6.70;;;14.90;86.50;;;;;;5014804;28;20029;-83
2021/04/24 11:21:31;;;;;;;17.33;8.75;;;14.90;86.50;;;;;;5018968;28;20205;-83
2021/04/24 11:24:00;;;;;;;18.70;7.95;;;14.90;86.70;;;;;;5019537;28;20037;-83
2021/04/24 11:26:46;;;;;;;8.93;6.43;;;14.90;87.00;;;;;;5020727;28;20061;-83
2021/04/24 11:29:18;;;;;;;8.50;6.38;;;14.80;86.80;;;;;;5019236;28;20416;-85
2021/04/24 11:32:10;;;;;;;11.02;6.45;;;14.80;87.00;;;;;;5020286;28;20026;-82
2021/04/24 11:34:46;;;;;;;9.57;7.07;;;14.80;86.70;;;;;;5012510;28;20044;-86
2021/04/24 11:37:31;;;;;;;12.88;8.77;;;14.70;86.90;;;;;;5016084;28;20101;-84
2021/04/24 11:40:19;;;;;;;13.82;8.73;;;14.70;86.90;;;;;;5010155;28;20030;-84
2021/04/24 11:42:51;;;;;;;12.35;9.70;;;14.60;87.30;;;;;;5005967;28;20109;-85
2021/04/24 11:45:57;;;;;;;14.98;11.23;;;14.60;87.30;;;;;;5006980;28;20058;-84
2021/04/24 11:48:49;;;;;;;14.43;10.82;;;14.50;87.40;;;;;;5011850;28;20029;-81
2021/04/24 11:51:39;;;;;;;19.27;11.45;;;14.40;87.60;;;;;;5010933;28;20121;-82
2021/04/24 11:54:32;;;;;;;16.83;11.27;;;14.30;87.90;;;;;;5012686;28;20037;-82
2021/04/24 11:57:01;;;;;;;12.88;9.50;;;14.20;88.70;;;;;;4997451;28;20034;-83
2021/04/24 11:59:36;;;;;;;15.20;9.38;;;14.10;89.20;;;;;;5006471;28;20025;-79
2021/04/24 12:02:33;;;;;;;17.50;10.85;;;14.10;89.60;;;;;;5008415;28;20038;-80
2021/04/24 12:05:11;;;;;;;;;;;14.10;90.00;;;;;;5009804;28;20034;-80
2021/04/24 12:07:43;;;;;;;12.88;9.80;;;14.00;90.10;;;;;;5010361;28;19939;-79
2021/04/24 12:10:12;;;;;;;14.05;9.57;;;14.00;90.20;;;;;;5017503;28;20125;-78
2021/04/24 12:12:48;;;;;;;16.40;10.10;;;13.90;90.50;;;;;;5018174;28;20676;-79
2021/04/24 12:15:18;;;;;;;;;;;13.90;90.70;;;;;;5016855;28;20049;-80
2021/04/24 12:17:49;;;;;;;18.25;11.23;;;13.90;90.80;;;;;;5010519;28;19921;-80
2021/04/24 12:20:20;;;;;;;13.95;10.68;;;13.80;91.00;;;;;;5007871;28;20108;-80
2021/04/24 12:22:48;;;;;;;15.05;10.18;;;13.80;91.00;;;;;;5006108;28;20503;-78
2021/04/24 12:25:17;;;;;;;13.70;9.30;;;13.90;90.80;;;;;;4997923;28;20038;-80
2021/04/24 12:27:49;;;;;;;10.80;8.80;;;13.90;90.90;;;;;;5006457;28;20025;-81
2021/04/24 12:30:21;;;;;;;13.75;8.75;;;13.80;91.00;;;;;;5003468;28;20042;-81
2021/04/24 12:33:06;;;;;;;12.02;8.52;;;13.80;91.00;;;;;;5008272;28;20535;-79
2021/04/24 12:35:36;;;;;;;11.90;8.68;;;13.80;91.10;;;;;;5004053;28;20134;-79
2021/04/24 12:38:13;;;;;;;15.77;9.27;;;13.80;91.00;;;;;;5006781;28;20030;-80
2021/04/24 12:40:54;;;;;;;14.07;9.43;;;13.70;90.90;;;;;;5008165;28;20358;-79
2021/04/24 12:43:28;;;;;;;12.63;8.63;;;13.70;91.00;;;;;;5005587;28;20042;-79
2021/04/24 12:46:01;;;;;;;12.10;9.85;;;13.70;91.30;;;;;;5005716;28;20034;-78
2021/04/24 12:48:39;;;;;;;15.18;8.82;;;13.50;91.20;;;;;;5006502;28;20030;-79
2021/04/24 12:51:16;;;;;;;14.85;9.82;;;13.50;91.30;;;;;;5008247;28;20058;-81
2021/04/24 12:53:45;;;;;;;14.57;8.95;;;13.40;91.50;;;;;;5010897;28;20394;-80
2021/04/24 12:56:20;;;;;;;13.77;9.05;;;13.40;91.60;;;;;;5002603;28;20089;-80
2021/04/24 12:58:58;;;;;;;12.05;8.70;;;13.30;91.50;;;;;;5013373;28;20036;-80
2021/04/24 13:01:27;;;;;;;11.57;7.72;;;13.20;91.20;;;;;;5008642;28;20030;-81